createdAt,value
2023-02-27T00:01:53.289Z,96232.72
2023-02-27T00:04:19.607Z,96230.69
2023-02-27T00:06:46.346Z,96231.84
2023-02-27T00:09:13.022Z,96229.81
2023-02-27T00:11:39.518Z,96223.88
2023-02-27T00:14:06.012Z,96229.31
2023-02-27T00:16:32.360Z,96225.81
2023-02-27T00:19:01.098Z,96221.59
2023-02-27T00:21:28.185Z,96218.09
2023-02-27T00:23:55.432Z,96216.84
2023-02-27T00:26:21.903Z,96221.88
2023-02-27T00:28:48.730Z,96227.22
2023-02-27T00:31:15.436Z,96220.88
2023-02-27T00:33:41.798Z,96240.38
2023-02-27T00:36:08.712Z,96231.88
2023-02-27T00:38:35.416Z,96233.50
2023-02-27T00:41:02.125Z,96235.41
2023-02-27T00:43:28.557Z,96242.47
2023-02-27T00:45:55.308Z,96246.84
2023-02-27T00:48:21.759Z,96238.38
2023-02-27T00:50:49.899Z,96242.03
2023-02-27T00:53:16.803Z,96237.22
2023-02-27T00:55:43.295Z,96244.28
2023-02-27T00:58:09.653Z,96240.63
2023-02-27T01:00:36.326Z,96246.19
2023-02-27T01:03:02.938Z,96247.22
2023-02-27T01:05:29.282Z,96245.13
2023-02-27T01:07:56.097Z,96253.25
2023-02-27T01:10:22.640Z,96251.13
2023-02-27T01:12:48.953Z,96250.53
2023-02-27T01:15:15.736Z,96243.44
2023-02-27T01:17:42.487Z,96244.19
2023-02-27T01:20:11.326Z,96251.69
2023-02-27T01:22:37.953Z,96242.50
2023-02-27T01:25:04.844Z,96252.63
2023-02-27T01:27:31.193Z,96254.19
2023-02-27T01:29:57.572Z,96266.69
2023-02-27T01:32:24.592Z,96253.94
2023-02-27T01:34:51.043Z,96250.63
2023-02-27T01:37:17.808Z,96255.81
2023-02-27T01:39:44.503Z,96258.53
2023-02-27T01:42:24.785Z,96252.53
2023-02-27T01:45:25.498Z,96253.59
2023-02-27T01:47:56.826Z,96257.72
2023-02-27T01:50:23.857Z,96262.78
2023-02-27T01:52:56.490Z,96264.09
2023-02-27T01:55:25.847Z,96271.97
2023-02-27T01:57:53.170Z,96267.75
2023-02-27T02:00:20.264Z,96268.44
2023-02-27T02:03:15.648Z,96259.00
2023-02-27T02:05:43.905Z,96249.38
2023-02-27T02:08:11.538Z,96259.72
2023-02-27T02:10:39.501Z,96265.19
2023-02-27T02:13:06.570Z,96264.22
2023-02-27T02:15:39.797Z,96255.59
2023-02-27T02:18:19.509Z,96264.81
2023-02-27T02:20:55.179Z,96261.88
2023-02-27T02:23:33.636Z,96264.91
2023-02-27T02:26:38.119Z,96267.28
2023-02-27T02:29:25.801Z,96261.88
2023-02-27T02:32:27.429Z,96271.41
2023-02-27T02:35:21.666Z,96274.94
2023-02-27T02:37:54.203Z,96273.66
2023-02-27T02:40:28.639Z,96272.59
2023-02-27T02:43:25.183Z,96281.09
2023-02-27T02:46:16.087Z,96265.66
2023-02-27T02:48:56.853Z,96270.34
2023-02-27T02:51:34.953Z,96268.50
2023-02-27T02:54:17.764Z,96275.78
2023-02-27T02:56:48.136Z,96277.19
2023-02-27T02:59:22.521Z,96278.88
2023-02-27T03:02:02.486Z,96277.66
2023-02-27T03:04:34.429Z,96278.97
2023-02-27T03:07:20.578Z,96275.31
2023-02-27T03:09:58.920Z,96277.53
2023-02-27T03:12:28.896Z,96271.53
2023-02-27T03:15:02.363Z,96267.41
2023-02-27T03:17:43.481Z,96263.88
2023-02-27T03:20:24.420Z,96272.94
2023-02-27T03:22:55.796Z,96264.13
2023-02-27T03:25:25.536Z,96270.63
2023-02-27T03:27:57.483Z,96279.09
2023-02-27T03:30:51.616Z,96270.47
2023-02-27T03:33:30.668Z,96275.06
2023-02-27T03:39:03.405Z,96280.25
2023-02-27T03:41:38.841Z,96279.19
2023-02-27T03:44:31.996Z,96292.97
2023-02-27T03:46:59.318Z,96281.69
2023-02-27T03:49:26.057Z,96286.59
2023-02-27T03:51:52.795Z,96279.31
2023-02-27T03:54:31.422Z,96289.44
2023-02-27T03:57:01.686Z,96290.50
2023-02-27T03:59:29.541Z,96288.03
2023-02-27T04:01:57.851Z,96295.09
2023-02-27T04:04:27.628Z,96291.09
2023-02-27T04:07:18.673Z,96285.19
2023-02-27T04:10:22.314Z,96296.88
2023-02-27T04:13:07.158Z,96297.09
2023-02-27T04:16:06.798Z,96304.88
2023-02-27T04:18:56.978Z,96307.47
2023-02-27T04:21:34.306Z,96307.09
2023-02-27T04:24:17.062Z,96309.91
2023-02-27T04:26:51.917Z,96308.50
2023-02-27T04:29:43.855Z,96302.63
2023-02-27T04:32:25.833Z,96309.91
2023-02-27T04:34:58.224Z,96313.13
2023-02-27T04:37:50.402Z,96302.50
2023-02-27T04:40:52.667Z,96313.56
2023-02-27T04:43:22.376Z,96307.09
2023-02-27T04:45:50.051Z,96315.69
2023-02-27T04:48:49.901Z,96317.94
2023-02-27T04:51:20.586Z,96324.16
2023-02-27T04:53:59.105Z,96313.31
2023-02-27T04:56:39.071Z,96320.38
2023-02-27T04:59:11.888Z,96322.28
2023-02-27T05:01:44.304Z,96315.66
2023-02-27T05:04:15.778Z,96316.47
2023-02-27T05:06:46.283Z,96325.91
2023-02-27T05:09:29.810Z,96316.47
2023-02-27T05:12:01.790Z,96320.81
2023-02-27T05:14:32.146Z,96322.13
2023-02-27T05:17:12.004Z,96321.88
2023-02-27T05:19:42.518Z,96319.19
2023-02-27T05:22:25.382Z,96319.41
2023-02-27T05:25:13.775Z,96327.78
2023-02-27T05:27:48.406Z,96333.91
2023-02-27T05:30:28.531Z,96325.56
2023-02-27T05:33:05.371Z,96329.91
2023-02-27T05:35:38.517Z,96333.34
2023-02-27T05:38:09.912Z,96336.75
2023-02-27T05:40:51.374Z,96336.16
2023-02-27T05:43:47.170Z,96337.66
2023-02-27T05:46:16.363Z,96331.44
2023-02-27T05:48:49.588Z,96325.44
2023-02-27T05:51:17.914Z,96334.94
2023-02-27T05:53:52.935Z,96328.72
2023-02-27T05:56:21.554Z,96335.31
2023-02-27T05:58:54.432Z,96332.63
2023-02-27T06:01:21.116Z,96330.03
2023-02-27T06:03:47.525Z,96329.66
2023-02-27T06:06:16.900Z,96338.59
2023-02-27T06:08:44.567Z,96340.50
2023-02-27T06:11:11.613Z,96330.84
2023-02-27T06:13:40.235Z,96332.84
2023-02-27T06:16:10.485Z,96340.06
2023-02-27T06:18:36.804Z,96332.50
2023-02-27T06:21:04.366Z,96336.06
2023-02-27T06:23:31.201Z,96338.75
2023-02-27T06:25:58.054Z,96341.84
2023-02-27T06:28:24.959Z,96330.75
2023-02-27T06:30:57.018Z,96340.56
2023-02-27T06:33:26.266Z,96340.56
2023-02-27T06:35:52.900Z,96343.03
2023-02-27T06:38:19.349Z,96346.53
2023-02-27T06:40:46.203Z,96349.03
2023-02-27T06:43:12.566Z,96349.03
2023-02-27T06:45:39.498Z,96336.31
2023-02-27T06:48:06.136Z,96337.38
2023-02-27T06:50:32.798Z,96334.56
2023-02-27T06:52:59.472Z,96338.69
2023-02-27T06:55:25.814Z,96331.34
2023-02-27T06:57:52.271Z,96330.44
2023-02-27T07:00:19.294Z,96337.16
2023-02-27T07:02:45.650Z,96336.78
2023-02-27T07:05:12.140Z,96342.81
2023-02-27T07:07:39.633Z,96329.97
2023-02-27T07:10:11.077Z,96326.22
2023-02-27T07:12:38.053Z,96328.09
2023-02-27T07:15:05.955Z,96337.63
2023-02-27T07:17:32.290Z,96325.97
2023-02-27T07:19:58.926Z,96327.69
2023-02-27T07:22:25.266Z,96324.97
2023-02-27T07:24:51.596Z,96329.94
2023-02-27T07:27:18.417Z,96318.28
2023-02-27T07:29:44.785Z,96315.91
2023-02-27T07:32:11.317Z,96305.34
2023-02-27T07:34:38.668Z,96308.44
2023-02-27T07:37:05.048Z,96295.50
2023-02-27T07:39:31.438Z,96297.66
2023-02-27T07:41:58.095Z,96284.84
2023-02-27T07:44:24.439Z,96289.78
2023-02-27T07:46:51.312Z,96275.28
2023-02-27T07:49:18.244Z,96271.94
2023-02-27T07:51:44.822Z,96273.41
2023-02-27T07:54:11.198Z,96264.91
2023-02-27T07:56:38.175Z,96253.56
2023-02-27T07:59:04.597Z,96246.19
2023-02-27T08:01:30.926Z,96241.00
2023-02-27T08:03:57.690Z,96240.84
2023-02-27T08:06:24.888Z,96249.31
2023-02-27T08:08:51.723Z,96241.03
2023-02-27T08:11:18.460Z,96245.00
2023-02-27T08:14:03.832Z,96244.28
2023-02-27T08:16:30.810Z,96243.13
2023-02-27T08:18:58.185Z,96251.22
2023-02-27T08:21:25.050Z,96249.06
2023-02-27T08:23:51.910Z,96259.31
2023-02-27T08:26:18.559Z,96260.19
2023-02-27T08:28:44.876Z,96271.41
2023-02-27T08:31:12.410Z,96271.03
2023-02-27T08:33:39.770Z,96271.25
2023-02-27T08:36:07.570Z,96287.47
2023-02-27T08:38:34.290Z,96295.75
2023-02-27T08:41:01.046Z,96298.13
2023-02-27T08:43:27.902Z,96290.50
2023-02-27T08:45:54.414Z,96304.22
2023-02-27T08:48:20.836Z,96299.19
2023-02-27T08:50:47.929Z,96302.31
2023-02-27T08:53:14.785Z,96301.63
2023-02-27T08:55:41.937Z,96299.34
2023-02-27T08:58:09.431Z,96326.94
2023-02-27T09:00:35.867Z,96330.03
2023-02-27T09:03:02.716Z,96347.91
2023-02-27T09:05:29.128Z,96333.38
2023-02-27T09:07:55.455Z,96353.44
2023-02-27T09:10:23.017Z,96362.25
2023-02-27T09:12:49.406Z,96357.84
2023-02-27T09:15:15.935Z,96371.13
2023-02-27T09:17:42.711Z,96372.16
2023-02-27T09:20:10.705Z,96389.88
2023-02-27T09:22:37.712Z,96389.84
2023-02-27T09:25:05.024Z,96393.47
2023-02-27T09:27:31.471Z,96393.09
2023-02-27T09:29:58.510Z,96395.81
2023-02-27T09:32:26.280Z,96402.69
2023-02-27T09:34:53.170Z,96397.72
2023-02-27T09:37:20.254Z,96427.59
2023-02-27T09:39:47.503Z,96416.75
2023-02-27T09:42:19.960Z,96415.09
2023-02-27T09:44:49.805Z,96408.94
2023-02-27T09:47:25.528Z,96432.00
2023-02-27T09:50:18.368Z,96438.50
2023-02-27T09:52:45.032Z,96446.03
2023-02-27T09:55:17.286Z,96454.84
2023-02-27T09:57:58.174Z,96471.38
2023-02-27T10:00:49.460Z,96457.78
2023-02-27T10:03:43.639Z,96461.78
2023-02-27T10:06:26.901Z,96469.13
2023-02-27T10:09:18.343Z,96460.44
2023-02-27T10:12:17.119Z,96458.97
2023-02-27T10:14:49.050Z,96455.88
2023-02-27T10:17:31.178Z,96452.91
2023-02-27T10:20:00.823Z,96472.13
2023-02-27T10:22:47.908Z,96466.00
2023-02-27T10:25:30.684Z,96473.22
2023-02-27T10:28:08.713Z,96488.53
2023-02-27T10:30:35.754Z,96474.56
2023-02-27T10:33:22.012Z,96486.78
2023-02-27T10:35:48.473Z,96478.59
2023-02-27T10:38:26.909Z,96488.66
2023-02-27T10:40:55.466Z,96494.28
2023-02-27T10:43:21.877Z,96495.66
2023-02-27T10:45:48.573Z,96495.78
2023-02-27T10:48:16.373Z,96477.53
2023-02-27T10:50:45.151Z,96498.34
2023-02-27T10:53:19.457Z,96490.94
2023-02-27T10:55:58.678Z,96499.19
2023-02-27T10:58:26.158Z,96494.63
2023-02-27T11:00:55.953Z,96473.91
2023-02-27T11:03:29.132Z,96473.34
2023-02-27T11:05:58.660Z,96495.28
2023-02-27T11:08:28.298Z,96479.16
2023-02-27T11:11:00.691Z,96476.22
2023-02-27T11:13:30.540Z,96466.69
2023-02-27T11:16:08.776Z,96459.66
2023-02-27T11:18:37.769Z,96474.34
2023-02-27T11:21:37.126Z,96472.63
2023-02-27T11:24:19.370Z,96461.28
2023-02-27T11:27:05.882Z,96473.91
2023-02-27T11:29:34.306Z,96476.06
2023-02-27T11:32:04.923Z,96474.22
2023-02-27T11:34:49.895Z,96461.06
2023-02-27T11:37:30.364Z,96476.16
2023-02-27T11:40:09.259Z,96470.56
2023-02-27T11:42:41.567Z,96481.78
2023-02-27T11:46:23.803Z,96473.25
2023-02-27T11:48:32.026Z,96471.16
2023-02-27T11:51:10.869Z,96460.56
2023-02-27T11:53:56.072Z,96464.28
2023-02-27T11:56:36.143Z,96471.91
2023-02-27T11:59:22.208Z,96474.38
2023-02-27T12:01:51.738Z,96470.25
2023-02-27T12:04:40.053Z,96473.06
2023-02-27T12:07:16.818Z,96471.53
2023-02-27T12:10:08.686Z,96473.16
2023-02-27T12:12:53.597Z,96457.16
2023-02-27T12:15:32.866Z,96466.75
2023-02-27T12:18:11.371Z,96466.66
2023-02-27T12:21:01.258Z,96455.44
2023-02-27T12:23:48.213Z,96458.09
2023-02-27T12:26:24.921Z,96477.13
2023-02-27T12:28:57.827Z,96461.78
2023-02-27T12:31:39.001Z,96467.56
2023-02-27T12:34:12.195Z,96475.53
2023-02-27T12:36:39.126Z,96475.34
2023-02-27T12:39:06.094Z,96462.88
2023-02-27T12:41:41.595Z,96470.13
2023-02-27T12:44:17.331Z,96483.53
2023-02-27T12:47:02.482Z,96461.81
2023-02-27T12:49:40.575Z,96459.72
2023-02-27T12:52:48.591Z,96461.47
2023-02-27T12:55:23.989Z,96463.63
2023-02-27T12:58:20.981Z,96472.47
2023-02-27T13:01:00.241Z,96455.38
2023-02-27T13:03:45.454Z,96446.50
2023-02-27T13:06:29.858Z,96445.69
2023-02-27T13:09:33.150Z,96453.81
2023-02-27T13:12:25.250Z,96466.38
2023-02-27T13:15:18.934Z,96456.50
2023-02-27T13:17:49.779Z,96457.34
2023-02-27T13:20:22.137Z,96451.69
2023-02-27T13:22:59.004Z,96447.56
2023-02-27T13:25:26.630Z,96450.47
2023-02-27T13:28:07.677Z,96455.50
2023-02-27T13:30:45.016Z,96453.03
2023-02-27T13:33:20.477Z,96447.31
2023-02-27T13:36:08.737Z,96462.38
2023-02-27T13:38:44.448Z,96454.34
2023-02-27T13:41:29.126Z,96452.00
2023-02-27T13:43:57.680Z,96452.47
2023-02-27T13:46:28.468Z,96448.25
2023-02-27T13:49:28.320Z,96458.66
2023-02-27T13:51:58.567Z,96456.09
2023-02-27T13:54:31.894Z,96445.50
2023-02-27T13:57:18.684Z,96442.19
2023-02-27T13:59:53.717Z,96441.69
2023-02-27T14:02:19.963Z,96459.19
2023-02-27T14:04:55.484Z,96457.44
2023-02-27T14:07:24.902Z,96451.97
2023-02-27T14:10:00.275Z,96450.41
2023-02-27T14:12:46.415Z,96450.78
2023-02-27T14:15:22.639Z,96449.66
2023-02-27T14:18:02.439Z,96443.94
2023-02-27T14:20:38.829Z,96450.03
2023-02-27T14:23:17.789Z,96461.34
2023-02-27T14:26:14.141Z,96459.75
2023-02-27T14:28:49.134Z,96458.66
2023-02-27T14:31:28.439Z,96470.41
2023-02-27T14:33:59.021Z,96454.38
2023-02-27T14:36:30.601Z,96461.88
2023-02-27T14:38:59.364Z,96456.78
2023-02-27T14:41:41.209Z,96467.94
2023-02-27T14:44:39.274Z,96463.78
2023-02-27T14:47:08.862Z,96469.78
2023-02-27T14:49:35.928Z,96467.97
2023-02-27T14:52:12.999Z,96473.91
2023-02-27T14:54:39.328Z,96470.59
2023-02-27T14:57:07.389Z,96477.47
2023-02-27T14:59:42.885Z,96472.34
2023-02-27T15:02:18.461Z,96474.56
2023-02-27T15:04:46.628Z,96478.78
2023-02-27T15:07:26.594Z,96473.16
2023-02-27T15:09:57.291Z,96499.19
2023-02-27T15:12:25.165Z,96488.44
2023-02-27T15:14:57.192Z,96483.63
2023-02-27T15:17:36.164Z,96480.13
2023-02-27T15:20:06.686Z,96484.38
2023-02-27T15:22:39.339Z,96487.16
2023-02-27T15:25:08.444Z,96484.94
2023-02-27T15:27:37.392Z,96495.13
2023-02-27T15:30:04.659Z,96491.06
2023-02-27T15:32:37.854Z,96499.50
2023-02-27T15:35:26.769Z,96483.44
2023-02-27T15:37:57.206Z,96499.44
2023-02-27T15:40:26.547Z,96489.78
2023-02-27T15:42:54.661Z,96497.25
2023-02-27T15:45:25.701Z,96498.94
2023-02-27T15:47:52.256Z,96493.41
2023-02-27T15:50:18.523Z,96496.44
2023-02-27T15:53:12.534Z,96506.16
2023-02-27T15:55:42.574Z,96513.19
2023-02-27T15:58:37.336Z,96504.69
2023-02-27T16:01:08.890Z,96512.34
2023-02-27T16:03:44.389Z,96505.03
2023-02-27T16:06:25.165Z,96512.66
2023-02-27T16:08:55.145Z,96512.66
2023-02-27T16:11:27.528Z,96523.66
2023-02-27T16:13:54.729Z,96526.97
2023-02-27T16:16:21.045Z,96523.53
2023-02-27T16:18:50.412Z,96528.88
2023-02-27T16:21:22.327Z,96532.72
2023-02-27T16:23:51.088Z,96538.63
2023-02-27T16:26:32.551Z,96533.00
2023-02-27T16:29:05.006Z,96537.25
2023-02-27T16:31:32.351Z,96536.56
2023-02-27T16:34:02.437Z,96538.34
2023-02-27T16:36:32.802Z,96555.91
2023-02-27T16:38:59.164Z,96551.25
2023-02-27T16:41:26.145Z,96552.22
2023-02-27T16:43:53.073Z,96552.22
2023-02-27T16:46:20.311Z,96562.13
2023-02-27T16:48:53.999Z,96564.97
2023-02-27T16:51:26.592Z,96570.84
2023-02-27T16:53:55.360Z,96573.88
2023-02-27T16:56:37.330Z,96568.38
2023-02-27T16:59:05.667Z,96575.81
2023-02-27T17:01:34.229Z,96578.81
2023-02-27T17:04:01.341Z,96583.09
2023-02-27T17:06:28.480Z,96582.41
2023-02-27T17:08:56.330Z,96580.19
2023-02-27T17:11:23.320Z,96587.31
2023-02-27T17:13:49.817Z,96586.53
2023-02-27T17:16:16.330Z,96593.13
2023-02-27T17:18:42.776Z,96592.00
2023-02-27T17:21:09.730Z,96582.06
2023-02-27T17:23:36.161Z,96595.69
2023-02-27T17:26:02.585Z,96598.50
2023-02-27T17:28:29.642Z,96600.88
2023-02-27T17:30:56.192Z,96606.09
2023-02-27T17:33:22.644Z,96611.16
2023-02-27T17:35:49.930Z,96614.16
2023-02-27T17:38:16.330Z,96613.91
2023-02-27T17:40:42.752Z,96611.78
2023-02-27T17:43:09.542Z,96621.22
2023-02-27T17:45:35.967Z,96614.88
2023-02-27T17:48:02.395Z,96623.03
2023-02-27T17:50:29.428Z,96627.97
2023-02-27T17:52:55.849Z,96622.97
2023-02-27T17:55:22.241Z,96634.03
2023-02-27T17:57:48.990Z,96636.09
2023-02-27T18:00:15.756Z,96629.38
2023-02-27T18:02:44.382Z,96632.75
2023-02-27T18:05:11.438Z,96640.63
2023-02-27T18:07:37.863Z,96639.88
2023-02-27T18:10:06.284Z,96644.25
2023-02-27T18:12:33.426Z,96643.72
2023-02-27T18:15:00.035Z,96636.59
2023-02-27T18:17:26.724Z,96646.47
2023-02-27T18:19:53.184Z,96646.44
2023-02-27T18:22:21.643Z,96655.75
2023-02-27T18:24:48.875Z,96652.22
2023-02-27T18:27:15.662Z,96646.22
2023-02-27T18:29:42.083Z,96639.00
2023-02-27T18:32:08.995Z,96652.38
2023-02-27T18:34:35.946Z,96649.41
2023-02-27T18:37:02.429Z,96652.34
2023-02-27T18:39:28.906Z,96660.56
2023-02-27T18:41:56.216Z,96650.72
2023-02-27T18:44:22.635Z,96651.72
2023-02-27T18:46:49.056Z,96654.34
2023-02-27T18:49:16.212Z,96653.88
2023-02-27T18:51:42.997Z,96652.63
2023-02-27T18:54:13.480Z,96642.00
2023-02-27T18:56:41.169Z,96645.88
2023-02-27T18:59:07.919Z,96639.22
2023-02-27T19:01:37.113Z,96653.78
2023-02-27T19:04:06.386Z,96654.00
2023-02-27T19:06:34.839Z,96642.75
2023-02-27T19:09:03.506Z,96650.97
2023-02-27T19:11:34.937Z,96651.66
2023-02-27T19:14:06.693Z,96647.91
2023-02-27T19:16:34.385Z,96652.09
2023-02-27T19:19:03.193Z,96648.66
2023-02-27T19:21:29.628Z,96652.03
2023-02-27T19:23:56.485Z,96648.50
2023-02-27T19:26:24.605Z,96640.69
2023-02-27T19:28:53.614Z,96649.41
2023-02-27T19:31:21.136Z,96645.59
2023-02-27T19:33:48.327Z,96646.66
2023-02-27T19:36:17.854Z,96646.13
2023-02-27T19:38:44.691Z,96649.97
2023-02-27T19:41:13.804Z,96638.31
2023-02-27T19:43:41.116Z,96644.75
2023-02-27T19:46:10.610Z,96635.28
2023-02-27T19:48:37.481Z,96637.38
2023-02-27T19:51:05.630Z,96634.56
2023-02-27T19:53:35.573Z,96641.31
2023-02-27T19:56:07.580Z,96637.84
2023-02-27T19:58:36.490Z,96642.59
2023-02-27T20:01:04.604Z,96634.56
2023-02-27T20:03:31.676Z,96647.81
2023-02-27T20:05:58.546Z,96641.06
2023-02-27T20:08:25.422Z,96644.50
2023-02-27T20:11:00.130Z,96637.91
2023-02-27T20:13:27.762Z,96639.22
2023-02-27T20:16:08.777Z,96642.16
2023-02-27T20:18:36.635Z,96639.84
2023-02-27T20:21:07.080Z,96635.47
2023-02-27T20:23:37.071Z,96636.88
2023-02-27T20:26:26.375Z,96638.31
2023-02-27T20:28:55.422Z,96628.59
2023-02-27T20:31:32.500Z,96628.38
2023-02-27T20:34:01.592Z,96634.09
2023-02-27T20:36:28.954Z,96633.13
2023-02-27T20:38:55.600Z,96627.34
2023-02-27T20:41:24.106Z,96633.38
2023-02-27T20:43:50.533Z,96627.53
2023-02-27T20:46:22.854Z,96622.38
2023-02-27T20:48:50.002Z,96617.81
2023-02-27T20:51:19.921Z,96626.66
2023-02-27T20:53:49.598Z,96627.03
2023-02-27T20:56:19.686Z,96615.19
2023-02-27T20:58:46.135Z,96628.19
2023-02-27T21:01:14.244Z,96621.63
2023-02-27T21:03:42.599Z,96620.41
2023-02-27T21:06:11.550Z,96616.47
2023-02-27T21:08:40.548Z,96624.06
2023-02-27T21:11:18.426Z,96617.41
2023-02-27T21:13:47.181Z,96621.56
2023-02-27T21:16:15.834Z,96622.59
2023-02-27T21:18:43.232Z,96617.19
2023-02-27T21:21:14.951Z,96616.31
2023-02-27T21:23:41.604Z,96609.69
2023-02-27T21:26:16.135Z,96607.41
2023-02-27T21:28:47.664Z,96615.94
2023-02-27T21:31:16.220Z,96603.34
2023-02-27T21:33:42.816Z,96589.13
2023-02-27T21:36:10.280Z,96581.88
2023-02-27T21:38:38.720Z,96582.25
2023-02-27T21:41:11.818Z,96585.38
2023-02-27T21:43:40.679Z,96578.34
2023-02-27T21:46:09.067Z,96577.44
2023-02-27T21:48:35.751Z,96567.72
2023-02-27T21:51:03.289Z,96572.75
2023-02-27T21:53:30.290Z,96562.50
2023-02-27T21:56:02.956Z,96562.41
2023-02-27T21:58:29.380Z,96557.13
2023-02-27T22:00:56.499Z,96559.03
2023-02-27T22:03:23.039Z,96553.31
2023-02-27T22:05:49.461Z,96544.75
2023-02-27T22:08:15.905Z,96545.44
2023-02-27T22:10:48.569Z,96546.13
2023-02-27T22:13:15.612Z,96541.44
2023-02-27T22:15:42.466Z,96540.22
2023-02-27T22:18:09.391Z,96531.56
2023-02-27T22:20:38.893Z,96533.44
2023-02-27T22:23:05.295Z,96533.19
2023-02-27T22:25:32.477Z,96530.59
2023-02-27T22:27:59.802Z,96527.53
2023-02-27T22:30:27.288Z,96528.31
2023-02-27T22:32:54.853Z,96527.16
2023-02-27T22:35:22.575Z,96530.91
2023-02-27T22:37:49.285Z,96529.72
2023-02-27T22:40:17.852Z,96514.59
2023-02-27T22:42:45.353Z,96518.09
2023-02-27T22:45:12.910Z,96523.75
2023-02-27T22:47:39.314Z,96508.91
2023-02-27T22:50:06.543Z,96515.13
2023-02-27T22:52:36.225Z,96492.94
2023-02-27T22:55:03.430Z,96493.28
2023-02-27T22:57:29.862Z,96497.06
2023-02-27T22:59:56.618Z,96496.53
2023-02-27T23:02:23.030Z,96491.94
2023-02-27T23:04:49.410Z,96495.16
2023-02-27T23:07:16.824Z,96496.75
2023-02-27T23:09:43.814Z,96506.84
2023-02-27T23:12:10.253Z,96511.22
2023-02-27T23:14:37.074Z,96505.47
2023-02-27T23:17:03.514Z,96499.50
2023-02-27T23:19:29.987Z,96511.38
2023-02-27T23:21:56.880Z,96506.72
2023-02-27T23:24:23.304Z,96506.84
2023-02-27T23:26:51.468Z,96496.22
2023-02-27T23:29:18.924Z,96493.78
2023-02-27T23:31:45.902Z,96490.94
2023-02-27T23:34:12.430Z,96493.91
2023-02-27T23:36:39.062Z,96486.81
2023-02-27T23:39:06.620Z,96492.56
2023-02-27T23:41:33.617Z,96486.81
2023-02-27T23:44:01.413Z,96485.66
2023-02-27T23:46:30.874Z,96475.25
2023-02-27T23:49:00.929Z,96477.84
2023-02-27T23:51:30.240Z,96476.53
2023-02-27T23:53:57.673Z,96473.41
2023-02-27T23:56:26.804Z,96487.56
2023-02-27T23:59:00.247Z,96476.16
